»·PEaware :: N3021C KBUR-KONT

N3021C :: KBUR-KONT

FLIGHT INFORMATION

Flight Status: Arrived
Operator: Privately registered:
United States
More flights under this callsign
Pilot: Mark B. (9455)
Aircraft: CESSNA 172 SKYHAWK
(C172)
More flights by this aircraft type
Origin: KBUR Bob Hope-Burbank
United States
Destination: KONT Ontario Intl
United States
More flights between these airports :: More routes between these airports
Route: +ELMOO8 ELMOO V186 PDZ
File this flight plan on PilotEdge
Remarks:
Altitude:
(Current/Filed)
7,000ft
Speed:
(Current/Filed)
115kts
Departed: 16-Apr-18 01:22 PM
Arrived: 16-Apr-18 02:05 PM
Distance/Time
Traveled:
39nm/0:43
Distance/Time
To Go:
Arrived

Flight Plot

Page will automatically refresh every two minutes.


Map Options




Map Legend


Flown Route
Filed Route
Departure Airport
Arrival Airport
Navaid (VOR, NDB)
Fix

Horizontal Profiles

Position Reports

Time Latitude Longitude Heading Altitude Ground
Speed
16-Apr-18 12:50 34.196335 -118.367572 358 781ft 0kts
16-Apr-18 12:51 34.196335 -118.367572 358 781ft 0kts
16-Apr-18 12:52 34.196335 -118.367572 358 781ft 0kts
16-Apr-18 12:53 34.196335 -118.367572 358 781ft 0kts
16-Apr-18 12:54 34.196335 -118.367572 358 781ft 0kts
16-Apr-18 12:55 34.196335 -118.367572 358 781ft 0kts
16-Apr-18 12:56 34.196335 -118.367572 358 781ft 0kts
16-Apr-18 12:57 34.196335 -118.367572 358 781ft 0kts
16-Apr-18 12:58 34.196335 -118.367572 358 781ft 0kts
16-Apr-18 12:59 34.196335 -118.367572 358 781ft 0kts
16-Apr-18 13:00 34.196335 -118.367572 358 781ft 0kts
16-Apr-18 13:01 34.196335 -118.367572 358 781ft 0kts
16-Apr-18 13:02 34.196335 -118.367572 358 781ft 0kts
16-Apr-18 13:03 34.196335 -118.367572 358 781ft 0kts
16-Apr-18 13:04 34.196335 -118.367572 358 781ft 0kts
16-Apr-18 13:05 34.196335 -118.367572 358 781ft 0kts
16-Apr-18 13:06 34.196335 -118.367572 358 781ft 0kts
16-Apr-18 13:07 34.196335 -118.367572 358 781ft 0kts
16-Apr-18 13:08 34.196335 -118.367572 358 781ft 0kts
16-Apr-18 13:09 34.196335 -118.367572 358 781ft 0kts
16-Apr-18 13:10 34.196335 -118.367572 358 781ft 0kts
16-Apr-18 13:11 34.196335 -118.367572 358 781ft 0kts
16-Apr-18 13:12 34.196538 -118.367481 59 781ft 5kts
16-Apr-18 13:13 34.196928 -118.368740 273 781ft 0kts
16-Apr-18 13:14 34.196928 -118.368740 273 781ft 0kts
16-Apr-18 13:15 34.196928 -118.368740 273 781ft 0kts
16-Apr-18 13:16 34.196928 -118.368740 273 781ft 0kts
16-Apr-18 13:17 34.196998 -118.368920 325 781ft 0kts
16-Apr-18 13:18 34.196998 -118.368920 325 781ft 0kts
16-Apr-18 13:19 34.196998 -118.368920 325 781ft 0kts
16-Apr-18 13:20 34.197155 -118.369019 337 781ft 9kts
16-Apr-18 13:21 34.197711 -118.353384 90 1117ft 87kts
16-Apr-18 13:22 34.183605 -118.330084 137 2181ft 88kts
16-Apr-18 13:23 34.167553 -118.307264 112 3157ft 91kts
16-Apr-18 13:24 34.158132 -118.279002 107 4086ft 92kts
16-Apr-18 13:25 34.149222 -118.249954 113 4935ft 96kts
16-Apr-18 13:26 34.138406 -118.216624 111 5010ft 113kts
16-Apr-18 13:27 34.127194 -118.181423 110 4985ft 114kts
16-Apr-18 13:28 34.115862 -118.145839 117 4998ft 112kts
16-Apr-18 13:29 34.104072 -118.110558 106 4966ft 114kts
16-Apr-18 13:30 34.093497 -118.074499 111 4929ft 115kts
16-Apr-18 13:31 34.083444 -118.038374 113 4914ft 116kts
16-Apr-18 13:32 34.071348 -118.003173 108 4909ft 115kts
16-Apr-18 13:33 34.059356 -117.968107 112 4922ft 114kts
16-Apr-18 13:34 34.049545 -117.932109 114 4928ft 113kts
16-Apr-18 13:35 34.036234 -117.897733 111 4937ft 113kts
16-Apr-18 13:36 34.026724 -117.861753 104 4945ft 113kts
16-Apr-18 13:37 34.014679 -117.826568 119 4940ft 113kts
16-Apr-18 13:38 34.003972 -117.791074 93 4916ft 115kts
16-Apr-18 13:39 34.002524 -117.753341 90 4891ft 116kts
16-Apr-18 13:40 34.002809 -117.715378 90 4920ft 113kts
16-Apr-18 13:41 34.002212 -117.677429 91 4923ft 114kts
16-Apr-18 13:42 34.001725 -117.639588 88 4942ft 113kts
16-Apr-18 13:43 34.001713 -117.601521 93 4931ft 114kts
16-Apr-18 13:44 34.000839 -117.563573 94 4944ft 113kts
16-Apr-18 13:45 33.999718 -117.525850 93 4946ft 114kts
16-Apr-18 13:46 33.998156 -117.488140 92 4965ft 113kts
16-Apr-18 13:47 33.998449 -117.450420 90 4967ft 113kts
16-Apr-18 13:48 33.997192 -117.412179 90 4960ft 113kts
16-Apr-18 13:49 33.996080 -117.374224 95 4971ft 113kts
16-Apr-18 13:50 33.996478 -117.336442 87 4981ft 113kts
16-Apr-18 13:51 33.997621 -117.298171 86 4947ft 115kts
16-Apr-18 13:52 33.998969 -117.260065 88 4957ft 113kts
16-Apr-18 13:53 34.002045 -117.222653 54 4950ft 114kts
16-Apr-18 13:54 34.024844 -117.233176 291 4969ft 113kts
16-Apr-18 13:55 34.036682 -117.270672 293 4590ft 126kts
16-Apr-18 13:56 34.049439 -117.308462 291 4117ft 125kts
16-Apr-18 13:57 34.055719 -117.348749 277 3884ft 118kts
16-Apr-18 13:58 34.055775 -117.386173 271 3907ft 120kts
16-Apr-18 13:59 34.055344 -117.427537 264 3519ft 122kts
16-Apr-18 14:00 34.053131 -117.467710 268 3010ft 111kts
16-Apr-18 14:01 34.055536 -117.503877 271 2261ft 105kts
16-Apr-18 14:02 34.054926 -117.535757 265 1798ft 84kts
16-Apr-18 14:03 34.054512 -117.565260 271 1318ft 88kts
16-Apr-18 14:04 34.054935 -117.588178 269 947ft 32kts

Navigation Log

Ident Type
1. KBUR Airport
2. ELMOO Fix
3. ITSME Fix
4. PIRRO Fix
5. ADAMM Fix
6. BAYJY Fix
7. TIFNI Fix
8. PDZ Navaid
9. KONT Airport